Terminal Aerodrome Forecast
Issued by NWS

Home | Current Version | Previous Version | Text Only | Print | Product List | Glossary On
Versions: 1 2 3 4 5 6 7 8 9 10 11 12 13 14 15 16 17 18
000
FTUS45 KCYS 232325
TAFLAR
TAF
KLAR 232325Z 2400/2424 21015G20KT P6SM SCT100
     FM240100 33016G30KT P6SM -RA OVC040
     FM240400 35016G24KT 3/4SM -SN OVC007
     FM241500 35015G25KT 4SM BLSN OVC040=

USA.gov is the U.S. government's official web portal to all federal, state and local government web resources and services.